sensor_id;sensor_type;location;lat;lon;timestamp;pressure;altitude;pressure_sealevel;temperature;humidity
60337;BME280;46978;50.288;28.624;2023-03-16T00:00:20;98318.63;;;2.39;99.81
60337;BME280;46978;50.288;28.624;2023-03-16T00:01:21;98316.92;;;2.35;99.98
60337;BME280;46978;50.288;28.624;2023-03-16T00:02:23;98321.20;;;2.33;100.00
60337;BME280;46978;50.288;28.624;2023-03-16T00:03:24;98328.05;;;2.31;100.00
60337;BME280;46978;50.288;28.624;2023-03-16T00:04:26;98319.50;;;2.21;100.00
60337;BME280;46978;50.288;28.624;2023-03-16T00:05:28;98317.83;;;2.17;100.00
60337;BME280;46978;50.288;28.624;2023-03-16T00:06:29;98315.27;;;2.19;100.00
60337;BME280;46978;50.288;28.624;2023-03-16T00:07:31;98316.11;;;2.19;100.00
60337;BME280;46978;50.288;28.624;2023-03-16T00:08:33;98316.11;;;2.19;100.00
60337;BME280;46978;50.288;28.624;2023-03-16T00:09:35;98317.83;;;2.19;100.00
60337;BME280;46978;50.288;28.624;2023-03-16T00:10:37;98318.67;;;2.18;100.00
60337;BME280;46978;50.288;28.624;2023-03-16T00:11:39;98325.50;;;2.17;100.00
60337;BME280;46978;50.288;28.624;2023-03-16T00:12:40;98325.50;;;2.17;100.00
60337;BME280;46978;50.288;28.624;2023-03-16T00:13:42;98321.23;;;2.14;100.00
60337;BME280;46978;50.288;28.624;2023-03-16T00:14:47;98327.19;;;2.15;100.00
60337;BME280;46978;50.288;28.624;2023-03-16T00:15:54;98329.75;;;2.12;100.00
60337;BME280;46978;50.288;28.624;2023-03-16T00:16:56;98325.52;;;2.06;100.00
60337;BME280;46978;50.288;28.624;2023-03-16T00:17:57;98321.23;;;2.04;100.00
60337;BME280;46978;50.288;28.624;2023-03-16T00:19:00;98321.23;;;2.04;100.00
60337;BME280;46978;50.288;28.624;2023-03-16T00:20:02;98323.80;;;2.04;100.00
60337;BME280;46978;50.288;28.624;2023-03-16T00:21:04;98325.52;;;2.03;100.00
60337;BME280;46978;50.288;28.624;2023-03-16T00:22:06;98324.64;;;2.03;100.00
60337;BME280;46978;50.288;28.624;2023-03-16T00:23:08;98321.24;;;2.02;100.00
60337;BME280;46978;50.288;28.624;2023-03-16T00:24:09;98321.23;;;2.04;100.00
60337;BME280;46978;50.288;28.624;2023-03-16T00:25:12;98323.80;;;2.07;100.00
60337;BME280;46978;50.288;28.624;2023-03-16T00:26:14;98315.28;;;2.03;100.00
60337;BME280;46978;50.288;28.624;2023-03-16T00:27:16;98317.84;;;2.05;100.00
60337;BME280;46978;50.288;28.624;2023-03-16T00:28:19;98316.97;;;2.03;100.00
60337;BME280;46978;50.288;28.624;2023-03-16T00:29:20;98316.13;;;2.02;100.00
60337;BME280;46978;50.288;28.624;2023-03-16T00:30:22;98316.13;;;2.01;100.00
60337;BME280;46978;50.288;28.624;2023-03-16T00:31:24;98328.08;;;2.02;100.00
60337;BME280;46978;50.288;28.624;2023-03-16T00:32:28;98319.52;;;2.00;100.00
60337;BME280;46978;50.288;28.624;2023-03-16T00:33:30;98328.08;;;2.00;100.00
60337;BME280;46978;50.288;28.624;2023-03-16T00:34:32;98322.08;;;2.00;100.00
60337;BME280;46978;50.288;28.624;2023-03-16T00:35:34;98322.08;;;1.98;100.00
60337;BME280;46978;50.288;28.624;2023-03-16T00:36:36;98316.97;;;1.98;100.00
60337;BME280;46978;50.288;28.624;2023-03-16T00:37:37;98318.69;;;1.99;100.00
60337;BME280;46978;50.288;28.624;2023-03-16T00:38:40;98308.45;;;1.91;100.00
60337;BME280;46978;50.288;28.624;2023-03-16T00:39:44;98308.45;;;1.90;100.00
60337;BME280;46978;50.288;28.624;2023-03-16T00:40:46;98305.90;;;1.91;100.00
60337;BME280;46978;50.288;28.624;2023-03-16T00:41:47;98302.50;;;1.91;100.00
60337;BME280;46978;50.288;28.624;2023-03-16T00:42:49;98298.22;;;1.88;100.00
60337;BME280;46978;50.288;28.624;2023-03-16T00:43:51;98301.63;;;1.87;100.00
60337;BME280;46978;50.288;28.624;2023-03-16T00:44:53;98301.63;;;1.87;100.00
60337;BME280;46978;50.288;28.624;2023-03-16T00:45:59;98297.38;;;1.89;100.00
60337;BME280;46978;50.288;28.624;2023-03-16T00:47:02;98299.06;;;1.90;100.00
60337;BME280;46978;50.288;28.624;2023-03-16T00:48:03;98307.61;;;1.92;100.00
60337;BME280;46978;50.288;28.624;2023-03-16T00:49:05;98302.50;;;1.89;100.00
60337;BME280;46978;50.288;28.624;2023-03-16T00:50:08;98305.05;;;1.89;100.00
60337;BME280;46978;50.288;28.624;2023-03-16T00:51:12;98303.34;;;1.88;100.00
60337;BME280;46978;50.288;28.624;2023-03-16T00:52:14;98302.50;;;1.83;100.00
60337;BME280;46978;50.288;28.624;2023-03-16T00:53:16;98317.84;;;1.78;100.00
60337;BME280;46978;50.288;28.624;2023-03-16T00:54:18;98313.57;;;1.79;100.00
60337;BME280;46978;50.288;28.624;2023-03-16T00:55:19;98310.17;;;1.78;100.00
60337;BME280;46978;50.288;28.624;2023-03-16T00:56:21;98316.13;;;1.76;100.00
60337;BME280;46978;50.288;28.624;2023-03-16T00:57:24;98310.17;;;1.72;100.00
60337;BME280;46978;50.288;28.624;2023-03-16T00:58:26;98311.85;;;1.72;100.00
60337;BME280;46978;50.288;28.624;2023-03-16T00:59:28;98314.41;;;1.72;100.00
60337;BME280;46978;50.288;28.624;2023-03-16T01:00:29;98305.90;;;1.70;100.00
60337;BME280;46978;50.288;28.624;2023-03-16T01:01:31;98312.73;;;1.68;100.00
60337;BME280;46978;50.288;28.624;2023-03-16T01:02:33;98308.45;;;1.70;100.00
60337;BME280;46978;50.288;28.624;2023-03-16T01:03:35;98307.61;;;1.71;100.00
60337;BME280;46978;50.288;28.624;2023-03-16T01:04:37;98319.53;;;1.73;100.00
60337;BME280;46978;50.288;28.624;2023-03-16T01:05:40;98304.18;;;1.70;100.00
60337;BME280;46978;50.288;28.624;2023-03-16T01:06:42;98311.85;;;1.72;100.00
60337;BME280;46978;50.288;28.624;2023-03-16T01:07:44;98313.57;;;1.71;100.00
60337;BME280;46978;50.288;28.624;2023-03-16T01:08:45;98308.45;;;1.71;100.00
60337;BME280;46978;50.288;28.624;2023-03-16T01:09:47;98322.08;;;1.73;100.00
60337;BME280;46978;50.288;28.624;2023-03-16T01:10:49;98316.97;;;1.64;100.00
60337;BME280;46978;50.288;28.624;2023-03-16T01:11:51;98321.23;;;1.65;100.00
60337;BME280;46978;50.288;28.624;2023-03-16T01:12:52;98322.95;;;1.65;100.00
60337;BME280;46978;50.288;28.624;2023-03-16T01:13:54;98322.95;;;1.65;100.00
60337;BME280;46978;50.288;28.624;2023-03-16T01:14:56;98321.23;;;1.64;100.00
60337;BME280;46978;50.288;28.624;2023-03-16T01:15:59;98312.72;;;1.58;100.00
60337;BME280;46978;50.288;28.624;2023-03-16T01:17:02;98314.41;;;1.61;100.00
60337;BME280;46978;50.288;28.624;2023-03-16T01:19:52;98305.05;;;1.69;100.00
60337;BME280;46978;50.288;28.624;2023-03-16T01:20:54;98314.41;;;1.61;100.00
60337;BME280;46978;50.288;28.624;2023-03-16T01:21:56;98313.56;;;1.62;100.00
60337;BME280;46978;50.288;28.624;2023-03-16T01:22:58;98318.68;;;1.65;100.00
60337;BME280;46978;50.288;28.624;2023-03-16T01:29:27;98313.57;;;1.73;100.00
60337;BME280;46978;50.288;28.624;2023-03-16T01:30:29;98322.08;;;1.64;100.00
60337;BME280;46978;50.288;28.624;2023-03-16T01:31:30;98325.51;;;1.65;100.00
60337;BME280;46978;50.288;28.624;2023-03-16T01:32:32;98317.83;;;1.60;100.00
60337;BME280;46978;50.288;28.624;2023-03-16T01:39:51;98322.95;;;1.65;99.44
60337;BME280;46978;50.288;28.624;2023-03-16T01:40:54;98330.61;;;1.51;99.01
60337;BME280;46978;50.288;28.624;2023-03-16T01:41:56;98332.28;;;1.47;99.08
60337;BME280;46978;50.288;28.624;2023-03-16T01:43:03;98338.27;;;1.46;99.13
60337;BME280;46978;50.288;28.624;2023-03-16T01:44:05;98339.11;;;1.48;99.23
60337;BME280;46978;50.288;28.624;2023-03-16T01:45:52;98352.73;;;1.49;99.32
60337;BME280;46978;50.288;28.624;2023-03-16T01:46:16;98344.23;;;1.48;99.40
60337;BME280;46978;50.288;28.624;2023-03-16T01:47:17;98351.89;;;1.45;99.59
60337;BME280;46978;50.288;28.624;2023-03-16T01:48:25;98359.55;;;1.45;99.71
60337;BME280;46978;50.288;28.624;2023-03-16T02:11:06;98370.61;;;1.38;100.00
60337;BME280;46978;50.288;28.624;2023-03-16T02:12:09;98385.95;;;1.29;100.00
60337;BME280;46978;50.288;28.624;2023-03-16T02:13:11;98385.95;;;1.29;100.00
60337;BME280;46978;50.288;28.624;2023-03-16T02:14:13;98385.95;;;1.30;100.00
60337;BME280;46978;50.288;28.624;2023-03-16T02:15:15;98387.63;;;1.31;100.00
60337;BME280;46978;50.288;28.624;2023-03-16T02:16:18;98390.20;;;1.33;100.00
60337;BME280;46978;50.288;28.624;2023-03-16T02:17:25;98392.75;;;1.33;100.00
60337;BME280;46978;50.288;28.624;2023-03-16T02:18:28;98397.02;;;1.32;100.00
60337;BME280;46978;50.288;28.624;2023-03-16T02:20:51;98397.02;;;1.32;100.00
60337;BME280;46978;50.288;28.624;2023-03-16T02:22:05;98397.02;;;1.32;100.00
60337;BME280;46978;50.288;28.624;2023-03-16T02:23:14;98387.64;;;1.34;100.00
60337;BME280;46978;50.288;28.624;2023-03-16T02:24:12;98395.32;;;1.37;100.00
60337;BME280;46978;50.288;28.624;2023-03-16T02:25:16;98390.22;;;1.40;100.00
60337;BME280;46978;50.288;28.624;2023-03-16T02:26:26;98391.06;;;1.41;100.00
60337;BME280;46978;50.288;28.624;2023-03-16T02:30:40;98385.13;;;1.50;100.00
60337;BME280;46978;50.288;28.624;2023-03-16T02:31:41;98387.66;;;1.39;100.00
60337;BME280;46978;50.288;28.624;2023-03-16T02:33:03;98392.77;;;1.37;100.00
60337;BME280;46978;50.288;28.624;2023-03-16T02:34:05;98397.03;;;1.35;100.00
60337;BME280;46978;50.288;28.624;2023-03-16T02:35:09;98394.47;;;1.34;100.00
60337;BME280;46978;50.288;28.624;2023-03-16T02:36:17;98384.23;;;1.29;100.00
60337;BME280;46978;50.288;28.624;2023-03-16T02:37:20;98394.46;;;1.31;100.00
60337;BME280;46978;50.288;28.624;2023-03-16T02:38:21;98402.13;;;1.29;100.00
60337;BME280;46978;50.288;28.624;2023-03-16T02:39:23;98393.62;;;1.30;100.00
60337;BME280;46978;50.288;28.624;2023-03-16T02:40:32;98397.86;;;1.33;100.00
60337;BME280;46978;50.288;28.624;2023-03-16T02:41:34;98401.28;;;1.30;100.00
60337;BME280;46978;50.288;28.624;2023-03-16T02:42:36;98393.63;;;1.32;100.00
60337;BME280;46978;50.288;28.624;2023-03-16T02:43:44;98386.80;;;1.31;100.00
60337;BME280;46978;50.288;28.624;2023-03-16T02:44:46;98395.30;;;1.33;100.00
60337;BME280;46978;50.288;28.624;2023-03-16T02:45:51;98391.91;;;1.34;100.00
60337;BME280;46978;50.288;28.624;2023-03-16T02:46:57;98390.20;;;1.34;100.00
60337;BME280;46978;50.288;28.624;2023-03-16T02:48:02;98388.48;;;1.35;100.00
60337;BME280;46978;50.288;28.624;2023-03-16T02:49:26;98385.93;;;1.35;100.00
60337;BME280;46978;50.288;28.624;2023-03-16T02:50:28;98398.70;;;1.35;100.00
60337;BME280;46978;50.288;28.624;2023-03-16T02:51:30;98394.47;;;1.35;100.00
60337;BME280;46978;50.288;28.624;2023-03-16T02:52:37;98408.09;;;1.34;100.00
60337;BME280;46978;50.288;28.624;2023-03-16T02:53:39;98400.42;;;1.34;100.00
60337;BME280;46978;50.288;28.624;2023-03-16T02:54:41;98406.38;;;1.33;100.00
60337;BME280;46978;50.288;28.624;2023-03-16T02:55:42;98402.14;;;1.34;100.00
60337;BME280;46978;50.288;28.624;2023-03-16T02:56:44;98407.25;;;1.35;100.00
60337;BME280;46978;50.288;28.624;2023-03-16T02:57:47;98410.64;;;1.34;100.00
60337;BME280;46978;50.288;28.624;2023-03-16T02:58:48;98407.25;;;1.34;100.00
60337;BME280;46978;50.288;28.624;2023-03-16T02:59:50;98415.75;;;1.33;100.00
60337;BME280;46978;50.288;28.624;2023-03-16T03:01:12;98408.09;;;1.33;100.00
60337;BME280;46978;50.288;28.624;2023-03-16T03:02:14;98416.60;;;1.35;100.00
60337;BME280;46978;50.288;28.624;2023-03-16T03:03:16;98414.91;;;1.34;100.00
60337;BME280;46978;50.288;28.624;2023-03-16T03:04:17;98420.86;;;1.31;100.00
60337;BME280;46978;50.288;28.624;2023-03-16T03:05:19;98416.63;;;1.32;100.00
60337;BME280;46978;50.288;28.624;2023-03-16T03:06:21;98417.46;;;1.31;100.00
60337;BME280;46978;50.288;28.624;2023-03-16T03:07:22;98423.41;;;1.30;100.00
60337;BME280;46978;50.288;28.624;2023-03-16T03:08:24;98420.86;;;1.30;100.00
60337;BME280;46978;50.288;28.624;2023-03-16T03:09:26;98430.23;;;1.29;100.00
60337;BME280;46978;50.288;28.624;2023-03-16T03:10:27;98422.55;;;1.24;100.00
60337;BME280;46978;50.288;28.624;2023-03-16T03:11:39;98431.04;;;1.20;100.00
60337;BME280;46978;50.288;28.624;2023-03-16T03:12:41;98421.69;;;1.19;100.00
60337;BME280;46978;50.288;28.624;2023-03-16T03:13:43;98429.34;;;1.18;100.00
60337;BME280;46978;50.288;28.624;2023-03-16T03:14:44;98427.63;;;1.18;100.00
60337;BME280;46978;50.288;28.624;2023-03-16T03:15:46;98428.48;;;1.20;100.00
60337;BME280;46978;50.288;28.624;2023-03-16T03:16:48;98432.77;;;1.23;100.00
60337;BME280;46978;50.288;28.624;2023-03-16T03:17:49;98443.83;;;1.23;100.00
60337;BME280;46978;50.288;28.624;2023-03-16T03:18:51;98438.71;;;1.22;100.00
60337;BME280;46978;50.288;28.624;2023-03-16T03:19:53;98442.14;;;1.22;100.00
60337;BME280;46978;50.288;28.624;2023-03-16T03:20:55;98441.27;;;1.23;100.00
60337;BME280;46978;50.288;28.624;2023-03-16T03:21:56;98432.75;;;1.21;100.00
60337;BME280;46978;50.288;28.624;2023-03-16T03:22:58;98443.78;;;1.14;100.00
60337;BME280;46978;50.288;28.624;2023-03-16T03:23:59;98437.83;;;1.14;100.00
60337;BME280;46978;50.288;28.624;2023-03-16T03:25:01;98436.98;;;1.12;100.00
60337;BME280;46978;50.288;28.624;2023-03-16T03:26:03;98447.20;;;1.12;100.00
60337;BME280;46978;50.288;28.624;2023-03-16T03:27:05;98436.11;;;1.11;100.00
60337;BME280;46978;50.288;28.624;2023-03-16T03:28:06;98442.08;;;1.09;100.00
60337;BME280;46978;50.288;28.624;2023-03-16T03:30:16;98431.80;;;0.96;100.00
60337;BME280;46978;50.288;28.624;2023-03-16T03:32:41;98436.84;;;0.85;100.00
60337;BME280;46978;50.288;28.624;2023-03-16T03:33:43;98437.67;;;0.84;100.00
60337;BME280;46978;50.288;28.624;2023-03-16T03:34:45;98431.73;;;0.85;100.00
60337;BME280;46978;50.288;28.624;2023-03-16T03:35:52;98430.86;;;0.85;100.00
60337;BME280;46978;50.288;28.624;2023-03-16T03:36:51;98430.86;;;0.85;100.00
60337;BME280;46978;50.288;28.624;2023-03-16T03:37:52;98428.31;;;0.86;100.00
60337;BME280;46978;50.288;28.624;2023-03-16T03:38:54;98426.62;;;0.85;100.00
60337;BME280;46978;50.288;28.624;2023-03-16T03:39:56;98430.86;;;0.85;100.00
60337;BME280;46978;50.288;28.624;2023-03-16T03:40:58;98426.59;;;0.81;100.00
60337;BME280;46978;50.288;28.624;2023-03-16T03:41:59;98433.36;;;0.76;100.00
60337;BME280;46978;50.288;28.624;2023-03-16T03:43:01;98436.78;;;0.76;100.00
60337;BME280;46978;50.288;28.624;2023-03-16T03:44:03;98435.91;;;0.76;100.00
60337;BME280;46978;50.288;28.624;2023-03-16T03:45:06;98437.62;;;0.75;100.00
60337;BME280;46978;50.288;28.624;2023-03-16T03:46:09;98442.73;;;0.75;100.00
60337;BME280;46978;50.288;28.624;2023-03-16T03:47:10;98445.28;;;0.75;100.00
60337;BME280;46978;50.288;28.624;2023-03-16T03:48:12;98443.56;;;0.74;100.00
60337;BME280;46978;50.288;28.624;2023-03-16T03:49:14;98445.27;;;0.72;100.00
60337;BME280;46978;50.288;28.624;2023-03-16T03:50:16;98446.11;;;0.74;100.00
60337;BME280;46978;50.288;28.624;2023-03-16T03:51:18;98450.39;;;0.75;100.00
60337;BME280;46978;50.288;28.624;2023-03-16T03:52:19;98446.11;;;0.73;100.00
60337;BME280;46978;50.288;28.624;2023-03-16T03:53:21;98452.09;;;0.75;100.00
60337;BME280;46978;50.288;28.624;2023-03-16T03:54:24;98465.72;;;0.77;100.00
60337;BME280;46978;50.288;28.624;2023-03-16T03:55:26;98454.64;;;0.73;100.00
60337;BME280;46978;50.288;28.624;2023-03-16T03:56:27;98458.02;;;0.70;100.00
60337;BME280;46978;50.288;28.624;2023-03-16T03:57:29;98462.28;;;0.70;100.00
60337;BME280;46978;50.288;28.624;2023-03-16T03:58:30;98460.58;;;0.72;100.00
60337;BME280;46978;50.288;28.624;2023-03-16T03:59:32;98463.98;;;0.74;100.00
60337;BME280;46978;50.288;28.624;2023-03-16T04:00:34;98456.34;;;0.76;100.00
60337;BME280;46978;50.288;28.624;2023-03-16T04:01:38;98454.66;;;0.76;100.00
60337;BME280;46978;50.288;28.624;2023-03-16T04:02:40;98449.56;;;0.78;100.00
60337;BME280;46978;50.288;28.624;2023-03-16T04:03:42;98454.67;;;0.78;100.00
60337;BME280;46978;50.288;28.624;2023-03-16T04:04:43;98448.70;;;0.79;100.00
60337;BME280;46978;50.288;28.624;2023-03-16T04:05:45;98452.11;;;0.78;100.00
60337;BME280;46978;50.288;28.624;2023-03-16T04:06:47;98453.80;;;0.77;100.00
60337;BME280;46978;50.288;28.624;2023-03-16T04:07:53;98452.13;;;0.79;100.00
60337;BME280;46978;50.288;28.624;2023-03-16T04:08:55;98454.67;;;0.78;100.00
60337;BME280;46978;50.288;28.624;2023-03-16T04:09:57;98449.55;;;0.75;100.00
60337;BME280;46978;50.288;28.624;2023-03-16T04:10:59;98452.94;;;0.75;100.00
60337;BME280;46978;50.288;28.624;2023-03-16T04:12:02;98457.17;;;0.70;100.00
60337;BME280;46978;50.288;28.624;2023-03-16T04:13:05;98462.27;;;0.68;100.00
60337;BME280;46978;50.288;28.624;2023-03-16T04:14:06;98463.95;;;0.69;100.00
60337;BME280;46978;50.288;28.624;2023-03-16T04:15:09;98461.41;;;0.71;100.00
60337;BME280;46978;50.288;28.624;2023-03-16T04:16:11;98463.98;;;0.74;100.00
60337;BME280;46978;50.288;28.624;2023-03-16T04:17:13;98465.70;;;0.74;100.00
60337;BME280;46978;50.288;28.624;2023-03-16T04:18:14;98452.09;;;0.75;100.00
60337;BME280;46978;50.288;28.624;2023-03-16T04:19:16;98466.56;;;0.77;100.00
60337;BME280;46978;50.288;28.624;2023-03-16T04:20:18;98464.88;;;0.78;100.00
60337;BME280;46978;50.288;28.624;2023-03-16T04:21:21;98460.63;;;0.78;100.00
60337;BME280;46978;50.288;28.624;2023-03-16T04:22:23;98464.04;;;0.82;100.00
60337;BME280;46978;50.288;28.624;2023-03-16T04:23:24;98466.61;;;0.85;100.00
60337;BME280;46978;50.288;28.624;2023-03-16T04:24:26;98460.67;;;0.86;100.00
60337;BME280;46978;50.288;28.624;2023-03-16T04:25:28;98465.75;;;0.81;100.00
60337;BME280;46978;50.288;28.624;2023-03-16T04:26:33;98469.13;;;0.79;100.00
60337;BME280;46978;50.288;28.624;2023-03-16T04:27:34;98474.23;;;0.79;100.00
60337;BME280;46978;50.288;28.624;2023-03-16T04:28:36;98474.25;;;0.80;100.00
60337;BME280;46978;50.288;28.624;2023-03-16T04:29:38;98481.07;;;0.81;100.00
60337;BME280;46978;50.288;28.624;2023-03-16T04:30:40;98479.36;;;0.82;100.00
60337;BME280;46978;50.288;28.624;2023-03-16T04:31:41;98481.05;;;0.78;100.00
60337;BME280;46978;50.288;28.624;2023-03-16T04:32:43;98480.22;;;0.79;100.00
60337;BME280;46978;50.288;28.624;2023-03-16T04:33:45;98482.73;;;0.75;100.00
60337;BME280;46978;50.288;28.624;2023-03-16T04:34:46;98483.57;;;0.74;100.00
60337;BME280;46978;50.288;28.624;2023-03-16T04:35:48;98476.72;;;0.69;100.00
60337;BME280;46978;50.288;28.624;2023-03-16T04:36:51;98479.27;;;0.68;100.00
60337;BME280;46978;50.288;28.624;2023-03-16T04:37:53;98480.14;;;0.68;100.00
60337;BME280;46978;50.288;28.624;2023-03-16T04:38:54;98482.72;;;0.71;100.00
60337;BME280;46978;50.288;28.624;2023-03-16T04:39:56;98485.28;;;0.73;100.00
60337;BME280;46978;50.288;28.624;2023-03-16T04:40:59;98484.41;;;0.73;100.00
60337;BME280;46978;50.288;28.624;2023-03-16T04:42:01;98481.86;;;0.74;100.00
60337;BME280;46978;50.288;28.624;2023-03-16T04:43:03;98488.66;;;0.72;100.00
60337;BME280;46978;50.288;28.624;2023-03-16T04:44:04;98487.84;;;0.73;100.00
60337;BME280;46978;50.288;28.624;2023-03-16T04:45:07;98489.52;;;0.74;100.00
60337;BME280;46978;50.288;28.624;2023-03-16T04:46:09;98492.97;;;0.76;100.00
60337;BME280;46978;50.288;28.624;2023-03-16T04:47:13;98490.41;;;0.76;100.00
60337;BME280;46978;50.288;28.624;2023-03-16T04:48:15;98496.38;;;0.78;100.00
60337;BME280;46978;50.288;28.624;2023-03-16T04:49:17;98499.76;;;0.77;100.00
60337;BME280;46978;50.288;28.624;2023-03-16T04:50:19;98504.03;;;0.78;100.00
60337;BME280;46978;50.288;28.624;2023-03-16T04:51:20;98500.64;;;0.78;100.00
60337;BME280;46978;50.288;28.624;2023-03-16T04:52:22;98502.33;;;0.80;100.00
60337;BME280;46978;50.288;28.624;2023-03-16T04:53:24;98497.23;;;0.82;100.00
60337;BME280;46978;50.288;28.624;2023-03-16T04:54:25;98496.41;;;0.84;100.00
60337;BME280;46978;50.288;28.624;2023-03-16T04:55:27;98503.24;;;0.85;100.00
60337;BME280;46978;50.288;28.624;2023-03-16T04:56:29;98503.24;;;0.85;100.00
60337;BME280;46978;50.288;28.624;2023-03-16T04:57:31;98505.78;;;0.82;100.00
60337;BME280;46978;50.288;28.624;2023-03-16T04:58:32;98498.11;;;0.81;100.00
60337;BME280;46978;50.288;28.624;2023-03-16T04:59:34;98501.50;;;0.81;100.00
60337;BME280;46978;50.288;28.624;2023-03-16T05:00:36;98501.48;;;0.78;100.00
60337;BME280;46978;50.288;28.624;2023-03-16T05:01:38;98494.67;;;0.80;100.00
60337;BME280;46978;50.288;28.624;2023-03-16T05:02:39;98498.95;;;0.81;100.00
60337;BME280;46978;50.288;28.624;2023-03-16T05:03:41;98504.91;;;0.83;100.00
60337;BME280;46978;50.288;28.624;2023-03-16T05:04:43;98499.81;;;0.85;100.00
60337;BME280;46978;50.288;28.624;2023-03-16T05:05:45;98505.80;;;0.85;100.00
60337;BME280;46978;50.288;28.624;2023-03-16T05:06:47;98504.08;;;0.84;100.00
60337;BME280;46978;50.288;28.624;2023-03-16T05:07:49;98504.94;;;0.88;100.00
60337;BME280;46978;50.288;28.624;2023-03-16T05:08:51;98506.66;;;0.89;100.00
60337;BME280;46978;50.288;28.624;2023-03-16T05:09:52;98510.06;;;0.89;100.00
60337;BME280;46978;50.288;28.624;2023-03-16T05:10:57;98510.94;;;0.90;100.00
60337;BME280;46978;50.288;28.624;2023-03-16T05:11:59;98510.91;;;0.85;100.00
60337;BME280;46978;50.288;28.624;2023-03-16T05:13:01;98500.70;;;0.87;100.00
60337;BME280;46978;50.288;28.624;2023-03-16T05:14:03;98510.89;;;0.84;100.00
60337;BME280;46978;50.288;28.624;2023-03-16T05:15:05;98512.58;;;0.85;100.00
60337;BME280;46978;50.288;28.624;2023-03-16T05:16:08;98503.24;;;0.85;100.00
60337;BME280;46978;50.288;28.624;2023-03-16T05:17:09;98510.92;;;0.87;100.00
60337;BME280;46978;50.288;28.624;2023-03-16T05:18:11;98515.17;;;0.89;100.00
60337;BME280;46978;50.288;28.624;2023-03-16T05:19:13;98521.16;;;0.92;100.00
60337;BME280;46978;50.288;28.624;2023-03-16T05:20:15;98511.79;;;0.92;100.00
60337;BME280;46978;50.288;28.624;2023-03-16T05:21:16;98515.21;;;0.96;100.00
60337;BME280;46978;50.288;28.624;2023-03-16T05:22:18;98525.41;;;0.93;100.00
60337;BME280;46978;50.288;28.624;2023-03-16T05:23:20;98524.55;;;0.91;100.00
60337;BME280;46978;50.288;28.624;2023-03-16T05:24:22;98521.98;;;0.89;100.00
60337;BME280;46978;50.288;28.624;2023-03-16T05:25:24;98527.96;;;0.93;100.00
60337;BME280;46978;50.288;28.624;2023-03-16T05:26:25;98525.41;;;0.93;100.00
60337;BME280;46978;50.288;28.624;2023-03-16T05:27:27;98524.56;;;0.92;100.00
60337;BME280;46978;50.288;28.624;2023-03-16T05:28:29;98528.84;;;0.95;100.00
60337;BME280;46978;50.288;28.624;2023-03-16T05:29:31;98531.42;;;0.98;100.00
60337;BME280;46978;50.288;28.624;2023-03-16T05:30:33;98528.89;;;1.01;100.00
60337;BME280;46978;50.288;28.624;2023-03-16T05:31:34;98535.69;;;1.02;100.00
60337;BME280;46978;50.288;28.624;2023-03-16T05:32:37;98535.67;;;0.99;100.00
60337;BME280;46978;50.288;28.624;2023-03-16T05:33:39;98534.80;;;0.95;100.00
60337;BME280;46978;50.288;28.624;2023-03-16T05:34:40;98530.54;;;0.96;100.00
60337;BME280;46978;50.288;28.624;2023-03-16T05:35:42;98541.63;;;0.96;100.00
60337;BME280;46978;50.288;28.624;2023-03-16T05:36:44;98537.37;;;0.97;100.00
60337;BME280;46978;50.288;28.624;2023-03-16T05:37:45;98536.55;;;0.99;100.00
60337;BME280;46978;50.288;28.624;2023-03-16T05:38:47;98542.51;;;1.01;100.00
60337;BME280;46978;50.288;28.624;2023-03-16T05:39:48;98540.78;;;0.99;100.00
60337;BME280;46978;50.288;28.624;2023-03-16T05:40:50;98544.22;;;1.01;100.00
60337;BME280;46978;50.288;28.624;2023-03-16T05:41:52;98545.04;;;0.98;100.00
60337;BME280;46978;50.288;28.624;2023-03-16T05:42:55;98547.61;;;1.00;100.00
60337;BME280;46978;50.288;28.624;2023-03-16T05:43:57;98542.48;;;0.97;100.00
60337;BME280;46978;50.288;28.624;2023-03-16T05:44:58;98551.88;;;0.99;100.00
60337;BME280;46978;50.288;28.624;2023-03-16T05:46:00;98557.81;;;0.98;100.00
60337;BME280;46978;50.288;28.624;2023-03-16T05:47:02;98555.27;;;1.00;100.00
60337;BME280;46978;50.288;28.624;2023-03-16T05:48:03;98559.55;;;1.01;100.00
60337;BME280;46978;50.288;28.624;2023-03-16T05:49:05;98557.00;;;1.02;100.00
60337;BME280;46978;50.288;28.624;2023-03-16T05:50:09;98554.42;;;0.99;100.00
60337;BME280;46978;50.288;28.624;2023-03-16T05:51:11;98555.25;;;0.97;100.00
60337;BME280;46978;50.288;28.624;2023-03-16T05:52:13;98553.53;;;0.96;100.00
60337;BME280;46978;50.288;28.624;2023-03-16T05:53:14;98562.94;;;1.00;100.00
60337;BME280;46978;50.288;28.624;2023-03-16T05:54:16;98563.78;;;1.00;100.00
60337;BME280;46978;50.288;28.624;2023-03-16T05:55:18;98563.77;;;0.99;100.00
60337;BME280;46978;50.288;28.624;2023-03-16T05:56:20;98566.34;;;1.02;100.00
60337;BME280;46978;50.288;28.624;2023-03-16T05:57:21;98557.78;;;0.94;100.00
60337;BME280;46978;50.288;28.624;2023-03-16T05:58:23;98565.47;;;0.97;100.00
60337;BME280;46978;50.288;28.624;2023-03-16T05:59:25;98568.03;;;0.98;100.00
60337;BME280;46978;50.288;28.624;2023-03-16T06:00:27;98558.66;;;0.99;100.00
60337;BME280;46978;50.288;28.624;2023-03-16T06:01:29;98567.17;;;0.96;100.00
60337;BME280;46978;50.288;28.624;2023-03-16T06:02:51;98564.63;;;0.98;100.00
60337;BME280;46978;50.288;28.624;2023-03-16T06:03:53;98560.31;;;0.91;100.00
60337;BME280;46978;50.288;28.624;2023-03-16T06:04:54;98568.81;;;0.91;100.00
60337;BME280;46978;50.288;28.624;2023-03-16T06:05:56;98575.64;;;0.91;100.00
60337;BME280;46978;50.288;28.624;2023-03-16T06:08:03;98585.01;;;0.90;100.00
60337;BME280;46978;50.288;28.624;2023-03-16T06:09:05;98562.84;;;0.87;100.00
60337;BME280;46978;50.288;28.624;2023-03-16T06:10:08;98565.38;;;0.86;100.00